Messwerte Deadhorse

Temperatur

Temperatur
°C
1611140400 2.00 2.00 -18
1611144000 3.00 3.00 -19
1611147600 4.00 4.00 -19
1611151200 5.00 5.00
1611154800 6.00 6.00 -21
1611158400 7.00 7.00 -23
1611162000 8.00 8.00 -24
1611165600 9.00 9.00 -26
1611169200 10.00 10.00 -26
1611172800 11.00 11.00 -25
1611176400 12.00 12.00 -28
1611180000 13.00 13.00 -27
1611183600 14.00 14.00 -28
1611187200 15.00 15.00 -28
1611190800 16.00 16.00
1611194400 17.00 17.00 -28
1611198000 18.00 18.00 -26
1611201600 19.00 19.00 -26
1611205200 20.00 20.00 -26
1611208800 21.00 21.00 -26
1611212400 22.00 22.00 -27
1611216000 23.00 23.00 -26
1611219600 0.00 0.00 -24
1611223200 1.00 1.00 -27

Aktuellste Messwerte

Wettercharakter
Wetter: wechselnd bewölkt
Temperatur
-24 °C
Feuchtigkeit
75 %
Wind
10 km/hWindrichtung: Ost
Luftdruck
1024 hPa
Messzeit: 21. Januar 2021, 3.00Datenquelle: METAR

Weitere Messstationen in der Nähe

Messstation Temperatur Entfernung
Kuparuk - 44 km
Deadhorse -27 °C 94 km
Barter Island -23 °C 183 km
Arctic Village -16 °C 258 km
Anaktuvuk Pass -12 °C 263 km
Barrow -21 °C 328 km
Atqasuk -26 °C 337 km

Wind

Windrichtung Böen Mittelwind
° km/h km/h
1611140400 2.00 1.00 - 2.00 60° 25
1611144000 3.00 2.00 - 3.00 40° 20
1611147600 4.00 3.00 - 4.00 20° 10
1611151200 5.00 4.00 - 5.00
1611154800 6.00 5.00 - 6.00 340° 10
1611158400 7.00 6.00 - 7.00 300° 5
1611162000 8.00 7.00 - 8.00 300° 15
1611165600 9.00 8.00 - 9.00 270° 10
1611169200 10.00 9.00 - 10.00 280° 10
1611172800 11.00 10.00 - 11.00 320° 10
1611176400 12.00 11.00 - 12.00 220° 10
1611180000 13.00 12.00 - 13.00 240° 10
1611183600 14.00 13.00 - 14.00 260° 15
1611187200 15.00 14.00 - 15.00 270° 15
1611190800 16.00 15.00 - 16.00
1611194400 17.00 16.00 - 17.00 0
1611198000 18.00 17.00 - 18.00 0
1611201600 19.00 18.00 - 19.00 0
1611205200 20.00 19.00 - 20.00 0
1611208800 21.00 20.00 - 21.00 70° 10
1611212400 22.00 21.00 - 22.00 110° 10
1611216000 23.00 22.00 - 23.00 70° 5
1611219600 0.00 23.00 - 0.00 60° 5
1611223200 1.00 0.00 - 1.00 80° 10

Ihre Wetterstation

Fehlt Ihre Wetterstation auf unserem Portal?

Schreiben Sie an network@meteonews.ch